sensor_id;sensor_type;location;lat;lon;timestamp;temperature;humidity
23520;DHT22;11936;50.820;4.336;2023-04-03T00:01:36;8.20;99.90
23520;DHT22;11936;50.820;4.336;2023-04-03T00:04:04;8.10;99.90
23520;DHT22;11936;50.820;4.336;2023-04-03T00:06:33;8.00;99.90
23520;DHT22;11936;50.820;4.336;2023-04-03T00:09:01;8.10;99.90
23520;DHT22;11936;50.820;4.336;2023-04-03T00:11:26;8.10;99.90
23520;DHT22;11936;50.820;4.336;2023-04-03T00:13:52;8.20;99.90
23520;DHT22;11936;50.820;4.336;2023-04-03T00:16:17;8.20;99.90
23520;DHT22;11936;50.820;4.336;2023-04-03T00:18:43;8.10;99.90
23520;DHT22;11936;50.820;4.336;2023-04-03T00:21:10;8.00;99.90
23520;DHT22;11936;50.820;4.336;2023-04-03T00:23:37;7.90;99.90
23520;DHT22;11936;50.820;4.336;2023-04-03T00:26:03;7.90;99.90
23520;DHT22;11936;50.820;4.336;2023-04-03T00:28:28;7.90;99.90
23520;DHT22;11936;50.820;4.336;2023-04-03T00:30:54;7.90;99.90
23520;DHT22;11936;50.820;4.336;2023-04-03T00:33:20;8.00;99.90
23520;DHT22;11936;50.820;4.336;2023-04-03T00:35:50;7.90;99.90
23520;DHT22;11936;50.820;4.336;2023-04-03T00:38:16;7.80;99.90
23520;DHT22;11936;50.820;4.336;2023-04-03T00:40:44;7.80;99.90
23520;DHT22;11936;50.820;4.336;2023-04-03T00:43:20;7.80;99.90
23520;DHT22;11936;50.820;4.336;2023-04-03T00:45:51;7.90;99.90
23520;DHT22;11936;50.820;4.336;2023-04-03T00:48:20;7.70;99.90
23520;DHT22;11936;50.820;4.336;2023-04-03T00:50:47;7.60;99.90
23520;DHT22;11936;50.820;4.336;2023-04-03T00:53:19;7.60;99.90
23520;DHT22;11936;50.820;4.336;2023-04-03T00:55:47;7.50;99.90
23520;DHT22;11936;50.820;4.336;2023-04-03T00:58:15;7.50;99.90
23520;DHT22;11936;50.820;4.336;2023-04-03T01:00:44;7.50;99.90
23520;DHT22;11936;50.820;4.336;2023-04-03T01:03:11;7.60;99.90
23520;DHT22;11936;50.820;4.336;2023-04-03T01:05:37;7.60;99.90
23520;DHT22;11936;50.820;4.336;2023-04-03T01:08:03;7.70;99.90
23520;DHT22;11936;50.820;4.336;2023-04-03T01:10:28;7.50;99.90
23520;DHT22;11936;50.820;4.336;2023-04-03T01:12:54;7.60;99.90
23520;DHT22;11936;50.820;4.336;2023-04-03T01:15:23;7.40;99.90
23520;DHT22;11936;50.820;4.336;2023-04-03T01:17:52;7.50;99.90
23520;DHT22;11936;50.820;4.336;2023-04-03T01:25:52;7.50;99.90
23520;DHT22;11936;50.820;4.336;2023-04-03T01:28:30;7.50;99.90
23520;DHT22;11936;50.820;4.336;2023-04-03T01:31:25;7.40;99.90
23520;DHT22;11936;50.820;4.336;2023-04-03T01:33:52;7.40;99.90
23520;DHT22;11936;50.820;4.336;2023-04-03T01:36:22;7.40;99.90
23520;DHT22;11936;50.820;4.336;2023-04-03T01:38:48;7.40;99.90
23520;DHT22;11936;50.820;4.336;2023-04-03T01:41:14;7.40;99.90
23520;DHT22;11936;50.820;4.336;2023-04-03T01:43:41;7.40;99.90
23520;DHT22;11936;50.820;4.336;2023-04-03T01:46:06;7.40;99.90
23520;DHT22;11936;50.820;4.336;2023-04-03T01:48:33;7.40;99.90
23520;DHT22;11936;50.820;4.336;2023-04-03T01:50:58;7.40;99.90
23520;DHT22;11936;50.820;4.336;2023-04-03T01:53:24;7.40;99.90
23520;DHT22;11936;50.820;4.336;2023-04-03T01:55:50;7.20;99.90
23520;DHT22;11936;50.820;4.336;2023-04-03T01:58:15;7.30;99.90
23520;DHT22;11936;50.820;4.336;2023-04-03T02:00:41;7.30;99.90
23520;DHT22;11936;50.820;4.336;2023-04-03T02:03:07;7.30;99.90
23520;DHT22;11936;50.820;4.336;2023-04-03T02:05:32;7.30;99.90
23520;DHT22;11936;50.820;4.336;2023-04-03T02:07:58;7.30;99.90
23520;DHT22;11936;50.820;4.336;2023-04-03T02:10:24;7.30;99.90
23520;DHT22;11936;50.820;4.336;2023-04-03T02:12:50;7.20;99.90
23520;DHT22;11936;50.820;4.336;2023-04-03T02:15:16;7.20;99.90
23520;DHT22;11936;50.820;4.336;2023-04-03T02:17:42;7.30;99.90
23520;DHT22;11936;50.820;4.336;2023-04-03T02:20:07;7.30;99.90
23520;DHT22;11936;50.820;4.336;2023-04-03T02:22:33;7.40;99.90
23520;DHT22;11936;50.820;4.336;2023-04-03T02:24:59;7.40;99.90
23520;DHT22;11936;50.820;4.336;2023-04-03T02:27:24;7.40;99.90
23520;DHT22;11936;50.820;4.336;2023-04-03T02:29:50;7.40;99.90
23520;DHT22;11936;50.820;4.336;2023-04-03T02:32:15;7.30;99.90
23520;DHT22;11936;50.820;4.336;2023-04-03T02:34:41;7.30;99.90
23520;DHT22;11936;50.820;4.336;2023-04-03T02:37:07;7.20;99.90
23520;DHT22;11936;50.820;4.336;2023-04-03T02:39:32;7.30;99.90
23520;DHT22;11936;50.820;4.336;2023-04-03T02:41:58;7.20;99.90
23520;DHT22;11936;50.820;4.336;2023-04-03T02:44:23;7.30;99.90
23520;DHT22;11936;50.820;4.336;2023-04-03T02:46:49;7.20;99.90
23520;DHT22;11936;50.820;4.336;2023-04-03T02:49:15;7.30;99.90
23520;DHT22;11936;50.820;4.336;2023-04-03T02:51:41;7.20;99.90
23520;DHT22;11936;50.820;4.336;2023-04-03T02:54:07;7.30;99.90
23520;DHT22;11936;50.820;4.336;2023-04-03T02:56:33;7.10;99.90
23520;DHT22;11936;50.820;4.336;2023-04-03T02:58:59;7.20;99.90
23520;DHT22;11936;50.820;4.336;2023-04-03T03:01:24;7.20;99.90
23520;DHT22;11936;50.820;4.336;2023-04-03T03:03:53;7.10;99.90
23520;DHT22;11936;50.820;4.336;2023-04-03T03:06:19;7.10;99.90
23520;DHT22;11936;50.820;4.336;2023-04-03T03:08:45;7.10;99.90
23520;DHT22;11936;50.820;4.336;2023-04-03T03:11:11;7.10;99.90
23520;DHT22;11936;50.820;4.336;2023-04-03T03:13:36;7.10;99.90
23520;DHT22;11936;50.820;4.336;2023-04-03T03:16:02;7.10;99.90
23520;DHT22;11936;50.820;4.336;2023-04-03T03:18:28;7.00;99.90
23520;DHT22;11936;50.820;4.336;2023-04-03T03:20:56;7.00;99.90
23520;DHT22;11936;50.820;4.336;2023-04-03T03:23:23;7.00;99.90
23520;DHT22;11936;50.820;4.336;2023-04-03T03:25:55;7.00;99.90
23520;DHT22;11936;50.820;4.336;2023-04-03T03:28:21;7.10;99.90
23520;DHT22;11936;50.820;4.336;2023-04-03T03:30:47;7.00;99.90
23520;DHT22;11936;50.820;4.336;2023-04-03T03:33:12;7.00;99.90
23520;DHT22;11936;50.820;4.336;2023-04-03T03:35:38;7.10;99.90
23520;DHT22;11936;50.820;4.336;2023-04-03T03:38:03;7.10;99.90
23520;DHT22;11936;50.820;4.336;2023-04-03T03:40:29;7.00;99.90
23520;DHT22;11936;50.820;4.336;2023-04-03T03:42:55;7.00;99.90
23520;DHT22;11936;50.820;4.336;2023-04-03T03:45:20;7.00;99.90
23520;DHT22;11936;50.820;4.336;2023-04-03T03:47:46;6.90;99.90
23520;DHT22;11936;50.820;4.336;2023-04-03T03:50:11;6.80;99.90
23520;DHT22;11936;50.820;4.336;2023-04-03T03:52:37;6.90;99.90
23520;DHT22;11936;50.820;4.336;2023-04-03T03:55:04;6.90;99.90
23520;DHT22;11936;50.820;4.336;2023-04-03T03:57:30;6.90;99.90
23520;DHT22;11936;50.820;4.336;2023-04-03T03:59:55;6.90;99.90
23520;DHT22;11936;50.820;4.336;2023-04-03T04:02:21;7.00;99.90
23520;DHT22;11936;50.820;4.336;2023-04-03T04:04:47;7.00;99.90
23520;DHT22;11936;50.820;4.336;2023-04-03T04:07:16;7.00;99.90
23520;DHT22;11936;50.820;4.336;2023-04-03T04:09:42;7.00;99.90
23520;DHT22;11936;50.820;4.336;2023-04-03T04:12:07;6.90;99.90
23520;DHT22;11936;50.820;4.336;2023-04-03T04:14:33;6.80;99.90
23520;DHT22;11936;50.820;4.336;2023-04-03T04:16:58;6.90;99.90
23520;DHT22;11936;50.820;4.336;2023-04-03T04:19:24;6.70;99.90
23520;DHT22;11936;50.820;4.336;2023-04-03T04:21:50;6.60;99.90
23520;DHT22;11936;50.820;4.336;2023-04-03T04:24:15;6.70;99.90
23520;DHT22;11936;50.820;4.336;2023-04-03T04:26:41;6.70;99.90
23520;DHT22;11936;50.820;4.336;2023-04-03T04:29:09;6.60;99.90
23520;DHT22;11936;50.820;4.336;2023-04-03T04:31:35;6.60;99.90
23520;DHT22;11936;50.820;4.336;2023-04-03T04:34:00;6.60;99.90
23520;DHT22;11936;50.820;4.336;2023-04-03T04:36:26;6.60;99.90
23520;DHT22;11936;50.820;4.336;2023-04-03T04:38:52;6.60;99.90
23520;DHT22;11936;50.820;4.336;2023-04-03T04:41:21;6.70;99.90
23520;DHT22;11936;50.820;4.336;2023-04-03T04:43:53;6.50;99.90
23520;DHT22;11936;50.820;4.336;2023-04-03T04:46:18;6.40;99.90
23520;DHT22;11936;50.820;4.336;2023-04-03T04:48:50;6.40;99.90
23520;DHT22;11936;50.820;4.336;2023-04-03T04:51:16;6.40;99.90
23520;DHT22;11936;50.820;4.336;2023-04-03T04:53:42;6.40;99.90
23520;DHT22;11936;50.820;4.336;2023-04-03T04:56:08;6.50;99.90
23520;DHT22;11936;50.820;4.336;2023-04-03T04:58:34;6.50;99.90
23520;DHT22;11936;50.820;4.336;2023-04-03T05:01:05;6.40;99.90
23520;DHT22;11936;50.820;4.336;2023-04-03T05:03:31;6.60;99.90
23520;DHT22;11936;50.820;4.336;2023-04-03T05:05:57;6.60;99.90
23520;DHT22;11936;50.820;4.336;2023-04-03T05:08:23;6.50;99.90
23520;DHT22;11936;50.820;4.336;2023-04-03T05:10:49;6.50;99.90
23520;DHT22;11936;50.820;4.336;2023-04-03T05:13:15;6.50;99.90
23520;DHT22;11936;50.820;4.336;2023-04-03T05:15:41;6.60;99.90
23520;DHT22;11936;50.820;4.336;2023-04-03T05:18:06;6.60;99.90
23520;DHT22;11936;50.820;4.336;2023-04-03T05:20:32;6.70;99.90
23520;DHT22;11936;50.820;4.336;2023-04-03T05:22:58;6.50;99.90
23520;DHT22;11936;50.820;4.336;2023-04-03T05:25:24;6.40;99.90
23520;DHT22;11936;50.820;4.336;2023-04-03T05:27:50;6.40;99.90
23520;DHT22;11936;50.820;4.336;2023-04-03T05:30:16;6.40;99.90
23520;DHT22;11936;50.820;4.336;2023-04-03T05:32:42;6.50;99.90
23520;DHT22;11936;50.820;4.336;2023-04-03T05:35:08;6.50;99.90
23520;DHT22;11936;50.820;4.336;2023-04-03T05:37:36;6.40;99.90
23520;DHT22;11936;50.820;4.336;2023-04-03T05:40:03;6.30;99.90
23520;DHT22;11936;50.820;4.336;2023-04-03T05:42:29;6.40;99.90
23520;DHT22;11936;50.820;4.336;2023-04-03T05:44:55;6.60;99.90
23520;DHT22;11936;50.820;4.336;2023-04-03T05:47:20;6.60;99.90
23520;DHT22;11936;50.820;4.336;2023-04-03T05:49:46;6.60;99.90
23520;DHT22;11936;50.820;4.336;2023-04-03T05:52:25;6.60;99.90
23520;DHT22;11936;50.820;4.336;2023-04-03T05:54:52;6.60;99.90
23520;DHT22;11936;50.820;4.336;2023-04-03T05:57:18;6.60;99.90
23520;DHT22;11936;50.820;4.336;2023-04-03T05:59:47;6.70;99.90
23520;DHT22;11936;50.820;4.336;2023-04-03T06:02:15;6.70;99.90
23520;DHT22;11936;50.820;4.336;2023-04-03T06:08:10;6.70;99.90
23520;DHT22;11936;50.820;4.336;2023-04-03T06:10:36;6.80;99.90
23520;DHT22;11936;50.820;4.336;2023-04-03T06:13:02;6.70;99.90
23520;DHT22;11936;50.820;4.336;2023-04-03T06:15:27;6.70;99.90
23520;DHT22;11936;50.820;4.336;2023-04-03T06:17:53;6.90;99.90
23520;DHT22;11936;50.820;4.336;2023-04-03T06:20:19;6.90;99.90
23520;DHT22;11936;50.820;4.336;2023-04-03T06:22:45;6.90;99.90
23520;DHT22;11936;50.820;4.336;2023-04-03T06:25:11;6.90;99.90
23520;DHT22;11936;50.820;4.336;2023-04-03T06:27:37;7.00;99.90
23520;DHT22;11936;50.820;4.336;2023-04-03T06:30:04;6.90;99.90
23520;DHT22;11936;50.820;4.336;2023-04-03T06:32:30;7.00;99.90
23520;DHT22;11936;50.820;4.336;2023-04-03T06:34:56;7.10;99.90
23520;DHT22;11936;50.820;4.336;2023-04-03T06:37:23;6.90;99.90
23520;DHT22;11936;50.820;4.336;2023-04-03T06:39:51;7.00;99.90
23520;DHT22;11936;50.820;4.336;2023-04-03T06:42:17;6.90;99.90
23520;DHT22;11936;50.820;4.336;2023-04-03T06:44:43;7.00;99.90
23520;DHT22;11936;50.820;4.336;2023-04-03T06:47:14;7.10;99.90
23520;DHT22;11936;50.820;4.336;2023-04-03T06:49:41;7.10;99.90
23520;DHT22;11936;50.820;4.336;2023-04-03T06:52:07;7.20;99.90
23520;DHT22;11936;50.820;4.336;2023-04-03T06:54:33;7.20;99.90
23520;DHT22;11936;50.820;4.336;2023-04-03T06:57:02;7.20;99.90
23520;DHT22;11936;50.820;4.336;2023-04-03T06:59:27;7.20;99.90
23520;DHT22;11936;50.820;4.336;2023-04-03T07:01:53;7.30;99.90
23520;DHT22;11936;50.820;4.336;2023-04-03T07:04:19;7.30;99.90
23520;DHT22;11936;50.820;4.336;2023-04-03T07:06:46;7.20;99.90
23520;DHT22;11936;50.820;4.336;2023-04-03T07:09:13;7.20;99.90
23520;DHT22;11936;50.820;4.336;2023-04-03T07:11:39;7.20;99.90
23520;DHT22;11936;50.820;4.336;2023-04-03T07:14:05;7.20;99.90
23520;DHT22;11936;50.820;4.336;2023-04-03T07:16:40;7.30;99.90
23520;DHT22;11936;50.820;4.336;2023-04-03T07:19:09;7.10;99.90
23520;DHT22;11936;50.820;4.336;2023-04-03T07:21:35;7.20;99.90
23520;DHT22;11936;50.820;4.336;2023-04-03T07:24:00;7.30;99.90
23520;DHT22;11936;50.820;4.336;2023-04-03T07:26:27;7.30;99.90
23520;DHT22;11936;50.820;4.336;2023-04-03T07:28:52;7.30;99.90
23520;DHT22;11936;50.820;4.336;2023-04-03T07:31:18;7.30;99.90
23520;DHT22;11936;50.820;4.336;2023-04-03T07:33:50;7.30;99.90
23520;DHT22;11936;50.820;4.336;2023-04-03T07:36:18;7.10;99.90
23520;DHT22;11936;50.820;4.336;2023-04-03T07:38:44;7.20;99.90
23520;DHT22;11936;50.820;4.336;2023-04-03T07:41:18;7.20;99.90
23520;DHT22;11936;50.820;4.336;2023-04-03T07:43:45;7.30;99.90
23520;DHT22;11936;50.820;4.336;2023-04-03T07:46:11;7.40;99.90
23520;DHT22;11936;50.820;4.336;2023-04-03T07:48:38;7.20;99.90
23520;DHT22;11936;50.820;4.336;2023-04-03T07:51:04;7.20;99.90
23520;DHT22;11936;50.820;4.336;2023-04-03T07:53:30;7.30;99.90
23520;DHT22;11936;50.820;4.336;2023-04-03T07:55:58;7.20;99.90
23520;DHT22;11936;50.820;4.336;2023-04-03T07:58:24;7.30;99.90
23520;DHT22;11936;50.820;4.336;2023-04-03T08:00:51;7.30;99.90
23520;DHT22;11936;50.820;4.336;2023-04-03T08:03:17;7.40;99.90
23520;DHT22;11936;50.820;4.336;2023-04-03T08:05:45;7.40;99.90
23520;DHT22;11936;50.820;4.336;2023-04-03T08:08:12;7.50;99.90
23520;DHT22;11936;50.820;4.336;2023-04-03T08:10:38;7.60;99.90
23520;DHT22;11936;50.820;4.336;2023-04-03T08:13:04;7.70;99.90
23520;DHT22;11936;50.820;4.336;2023-04-03T08:15:31;7.70;99.90
23520;DHT22;11936;50.820;4.336;2023-04-03T08:17:57;7.80;99.90
23520;DHT22;11936;50.820;4.336;2023-04-03T08:20:23;7.70;99.90
23520;DHT22;11936;50.820;4.336;2023-04-03T08:22:49;7.80;99.90
23520;DHT22;11936;50.820;4.336;2023-04-03T08:25:14;7.70;99.90
23520;DHT22;11936;50.820;4.336;2023-04-03T08:27:40;7.90;99.90
23520;DHT22;11936;50.820;4.336;2023-04-03T08:30:07;7.90;99.90
23520;DHT22;11936;50.820;4.336;2023-04-03T08:32:36;7.90;99.90
23520;DHT22;11936;50.820;4.336;2023-04-03T08:35:03;7.80;99.90
23520;DHT22;11936;50.820;4.336;2023-04-03T08:37:28;7.90;99.90
23520;DHT22;11936;50.820;4.336;2023-04-03T08:39:54;7.80;99.90
23520;DHT22;11936;50.820;4.336;2023-04-03T08:46:02;8.00;99.90
23520;DHT22;11936;50.820;4.336;2023-04-03T08:48:00;8.00;99.90
23520;DHT22;11936;50.820;4.336;2023-04-03T08:50:33;8.00;99.90
23520;DHT22;11936;50.820;4.336;2023-04-03T08:53:02;7.90;99.90
23520;DHT22;11936;50.820;4.336;2023-04-03T08:55:37;7.90;99.90
23520;DHT22;11936;50.820;4.336;2023-04-03T09:00:43;8.10;99.90
23520;DHT22;11936;50.820;4.336;2023-04-03T09:03:20;8.10;99.90
23520;DHT22;11936;50.820;4.336;2023-04-03T09:06:02;8.20;99.90
23520;DHT22;11936;50.820;4.336;2023-04-03T09:11:36;8.40;99.90
23520;DHT22;11936;50.820;4.336;2023-04-03T09:20:24;8.50;99.90
23520;DHT22;11936;50.820;4.336;2023-04-03T09:22:52;8.40;99.90
23520;DHT22;11936;50.820;4.336;2023-04-03T09:25:33;8.40;99.90
23520;DHT22;11936;50.820;4.336;2023-04-03T09:28:01;8.50;99.90
23520;DHT22;11936;50.820;4.336;2023-04-03T09:30:28;8.50;99.90
23520;DHT22;11936;50.820;4.336;2023-04-03T09:32:56;8.50;99.90
23520;DHT22;11936;50.820;4.336;2023-04-03T09:37:52;8.40;99.90
23520;DHT22;11936;50.820;4.336;2023-04-03T09:40:32;8.40;99.90
23520;DHT22;11936;50.820;4.336;2023-04-03T09:43:02;8.40;99.90
23520;DHT22;11936;50.820;4.336;2023-04-03T09:45:43;8.50;99.90
23520;DHT22;11936;50.820;4.336;2023-04-03T09:48:17;8.50;99.90
23520;DHT22;11936;50.820;4.336;2023-04-03T09:50:58;8.50;99.90
23520;DHT22;11936;50.820;4.336;2023-04-03T09:53:39;8.50;99.90
23520;DHT22;11936;50.820;4.336;2023-04-03T09:58:45;8.60;99.90
23520;DHT22;11936;50.820;4.336;2023-04-03T10:01:30;8.60;99.90
23520;DHT22;11936;50.820;4.336;2023-04-03T10:04:15;8.70;99.90
23520;DHT22;11936;50.820;4.336;2023-04-03T10:06:46;8.80;99.90
23520;DHT22;11936;50.820;4.336;2023-04-03T10:09:25;8.70;99.90
23520;DHT22;11936;50.820;4.336;2023-04-03T10:12:10;8.90;99.90
23520;DHT22;11936;50.820;4.336;2023-04-03T10:14:39;9.00;99.90
23520;DHT22;11936;50.820;4.336;2023-04-03T10:19:42;8.90;99.90
23520;DHT22;11936;50.820;4.336;2023-04-03T10:28:16;9.20;99.90
23520;DHT22;11936;50.820;4.336;2023-04-03T10:39:37;9.20;99.50
23520;DHT22;11936;50.820;4.336;2023-04-03T10:44:40;9.30;98.90
23520;DHT22;11936;50.820;4.336;2023-04-03T10:47:16;9.30;98.80
23520;DHT22;11936;50.820;4.336;2023-04-03T10:50:12;9.30;98.50
23520;DHT22;11936;50.820;4.336;2023-04-03T10:53:06;9.40;98.10
23520;DHT22;11936;50.820;4.336;2023-04-03T10:55:54;9.50;97.30
23520;DHT22;11936;50.820;4.336;2023-04-03T10:58:30;9.60;97.20
23520;DHT22;11936;50.820;4.336;2023-04-03T11:01:46;9.60;97.20
23520;DHT22;11936;50.820;4.336;2023-04-03T11:03:59;9.60;97.30
23520;DHT22;11936;50.820;4.336;2023-04-03T11:06:36;9.60;97.80
23520;DHT22;11936;50.820;4.336;2023-04-03T11:09:22;9.60;96.80
23520;DHT22;11936;50.820;4.336;2023-04-03T11:12:04;9.70;96.10
23520;DHT22;11936;50.820;4.336;2023-04-03T11:14:34;9.70;93.70
23520;DHT22;11936;50.820;4.336;2023-04-03T11:17:11;9.70;94.40
23520;DHT22;11936;50.820;4.336;2023-04-03T11:19:57;9.70;93.30
23520;DHT22;11936;50.820;4.336;2023-04-03T11:22:48;9.80;92.80
23520;DHT22;11936;50.820;4.336;2023-04-03T11:25:24;9.90;92.10
23520;DHT22;11936;50.820;4.336;2023-04-03T11:27:58;10.00;92.60
23520;DHT22;11936;50.820;4.336;2023-04-03T11:30:39;9.80;91.20
23520;DHT22;11936;50.820;4.336;2023-04-03T11:36:29;9.80;91.90
23520;DHT22;11936;50.820;4.336;2023-04-03T11:38:58;9.90;92.20
23520;DHT22;11936;50.820;4.336;2023-04-03T11:41:27;10.00;92.60
23520;DHT22;11936;50.820;4.336;2023-04-03T11:44:04;10.10;92.40
23520;DHT22;11936;50.820;4.336;2023-04-03T11:46:58;9.90;91.90
23520;DHT22;11936;50.820;4.336;2023-04-03T11:58:02;10.30;92.70
23520;DHT22;11936;50.820;4.336;2023-04-03T12:16:50;10.60;91.40
23520;DHT22;11936;50.820;4.336;2023-04-03T12:19:01;10.60;91.80
23520;DHT22;11936;50.820;4.336;2023-04-03T12:27:08;10.60;89.20
23520;DHT22;11936;50.820;4.336;2023-04-03T12:29:40;10.60;90.30
23520;DHT22;11936;50.820;4.336;2023-04-03T12:35:19;10.60;90.10
23520;DHT22;11936;50.820;4.336;2023-04-03T12:43:24;10.60;83.60
23520;DHT22;11936;50.820;4.336;2023-04-03T12:48:52;10.70;82.90
23520;DHT22;11936;50.820;4.336;2023-04-03T12:54:01;10.60;80.20
23520;DHT22;11936;50.820;4.336;2023-04-03T12:56:31;10.70;80.80
23520;DHT22;11936;50.820;4.336;2023-04-03T13:01:43;10.90;81.10
23520;DHT22;11936;50.820;4.336;2023-04-03T13:04:11;11.00;81.70
23520;DHT22;11936;50.820;4.336;2023-04-03T13:06:42;11.10;81.80
23520;DHT22;11936;50.820;4.336;2023-04-03T13:09:25;11.10;80.00
23520;DHT22;11936;50.820;4.336;2023-04-03T13:12:03;11.20;77.20
23520;DHT22;11936;50.820;4.336;2023-04-03T13:14:38;11.10;77.60
23520;DHT22;11936;50.820;4.336;2023-04-03T13:17:12;11.10;77.10
23520;DHT22;11936;50.820;4.336;2023-04-03T13:19:38;11.10;77.30
23520;DHT22;11936;50.820;4.336;2023-04-03T13:22:07;11.10;76.30
23520;DHT22;11936;50.820;4.336;2023-04-03T13:24:37;11.10;76.80
23520;DHT22;11936;50.820;4.336;2023-04-03T13:27:06;10.90;75.40
23520;DHT22;11936;50.820;4.336;2023-04-03T13:29:35;11.00;77.00
23520;DHT22;11936;50.820;4.336;2023-04-03T13:32:02;11.00;76.10
23520;DHT22;11936;50.820;4.336;2023-04-03T13:34:37;11.00;74.70
23520;DHT22;11936;50.820;4.336;2023-04-03T13:37:03;11.00;75.50
23520;DHT22;11936;50.820;4.336;2023-04-03T13:39:38;11.10;73.40
23520;DHT22;11936;50.820;4.336;2023-04-03T13:42:26;11.10;72.90
23520;DHT22;11936;50.820;4.336;2023-04-03T13:45:24;11.20;74.60
23520;DHT22;11936;50.820;4.336;2023-04-03T13:48:11;11.30;73.90
23520;DHT22;11936;50.820;4.336;2023-04-03T13:53:17;11.30;73.50
23520;DHT22;11936;50.820;4.336;2023-04-03T13:55:57;11.30;73.00
23520;DHT22;11936;50.820;4.336;2023-04-03T13:58:27;11.40;71.80
23520;DHT22;11936;50.820;4.336;2023-04-03T14:01:19;11.40;71.80
23520;DHT22;11936;50.820;4.336;2023-04-03T14:06:19;11.40;72.00
23520;DHT22;11936;50.820;4.336;2023-04-03T14:08:46;11.50;72.80
23520;DHT22;11936;50.820;4.336;2023-04-03T14:11:19;11.50;73.80
23520;DHT22;11936;50.820;4.336;2023-04-03T14:13:46;11.60;75.90
23520;DHT22;11936;50.820;4.336;2023-04-03T14:16:21;11.70;73.90
23520;DHT22;11936;50.820;4.336;2023-04-03T14:18:49;11.80;72.40
23520;DHT22;11936;50.820;4.336;2023-04-03T14:21:17;11.80;72.70
23520;DHT22;11936;50.820;4.336;2023-04-03T14:23:44;11.80;72.60
23520;DHT22;11936;50.820;4.336;2023-04-03T14:26:18;11.70;74.10
23520;DHT22;11936;50.820;4.336;2023-04-03T14:28:48;11.70;71.80
23520;DHT22;11936;50.820;4.336;2023-04-03T14:31:16;11.80;73.80
23520;DHT22;11936;50.820;4.336;2023-04-03T14:33:42;12.00;85.40
23520;DHT22;11936;50.820;4.336;2023-04-03T14:36:25;12.10;73.00
23520;DHT22;11936;50.820;4.336;2023-04-03T14:38:53;12.00;71.00
23520;DHT22;11936;50.820;4.336;2023-04-03T14:41:22;11.80;69.40
23520;DHT22;11936;50.820;4.336;2023-04-03T14:43:49;11.80;70.80
23520;DHT22;11936;50.820;4.336;2023-04-03T14:46:24;11.70;70.80
23520;DHT22;11936;50.820;4.336;2023-04-03T14:48:51;11.70;71.90
23520;DHT22;11936;50.820;4.336;2023-04-03T14:51:17;11.80;70.80
23520;DHT22;11936;50.820;4.336;2023-04-03T14:53:44;11.90;70.10
23520;DHT22;11936;50.820;4.336;2023-04-03T14:56:19;12.00;71.50
23520;DHT22;11936;50.820;4.336;2023-04-03T14:58:48;11.80;71.10
23520;DHT22;11936;50.820;4.336;2023-04-03T15:01:16;11.90;71.40
23520;DHT22;11936;50.820;4.336;2023-04-03T15:03:43;12.00;69.60
23520;DHT22;11936;50.820;4.336;2023-04-03T15:06:13;12.10;70.80
23520;DHT22;11936;50.820;4.336;2023-04-03T15:08:39;12.20;69.50
23520;DHT22;11936;50.820;4.336;2023-04-03T15:11:07;12.30;70.90
23520;DHT22;11936;50.820;4.336;2023-04-03T15:13:32;12.20;69.30
23520;DHT22;11936;50.820;4.336;2023-04-03T15:15:58;12.30;71.30
23520;DHT22;11936;50.820;4.336;2023-04-03T15:18:25;12.30;70.00
23520;DHT22;11936;50.820;4.336;2023-04-03T15:20:52;12.20;69.80
23520;DHT22;11936;50.820;4.336;2023-04-03T15:23:18;12.20;68.90
23520;DHT22;11936;50.820;4.336;2023-04-03T15:25:45;12.30;68.30
23520;DHT22;11936;50.820;4.336;2023-04-03T15:28:31;12.30;67.40
23520;DHT22;11936;50.820;4.336;2023-04-03T15:30:58;12.20;67.50
23520;DHT22;11936;50.820;4.336;2023-04-03T15:33:24;12.20;68.90
23520;DHT22;11936;50.820;4.336;2023-04-03T15:35:50;12.20;67.60
23520;DHT22;11936;50.820;4.336;2023-04-03T15:38:15;12.20;65.40
23520;DHT22;11936;50.820;4.336;2023-04-03T15:40:41;12.30;67.00
23520;DHT22;11936;50.820;4.336;2023-04-03T15:43:09;12.20;66.80
23520;DHT22;11936;50.820;4.336;2023-04-03T15:45:36;12.20;67.20
23520;DHT22;11936;50.820;4.336;2023-04-03T15:48:03;12.20;66.10
23520;DHT22;11936;50.820;4.336;2023-04-03T15:50:30;12.30;64.90
23520;DHT22;11936;50.820;4.336;2023-04-03T15:52:56;12.30;65.80
23520;DHT22;11936;50.820;4.336;2023-04-03T15:55:25;12.40;65.50
23520;DHT22;11936;50.820;4.336;2023-04-03T15:57:52;12.30;65.50
23520;DHT22;11936;50.820;4.336;2023-04-03T16:00:19;12.20;64.40
23520;DHT22;11936;50.820;4.336;2023-04-03T16:02:46;12.20;66.00
23520;DHT22;11936;50.820;4.336;2023-04-03T16:05:14;12.30;66.40
23520;DHT22;11936;50.820;4.336;2023-04-03T16:07:43;12.40;66.20
23520;DHT22;11936;50.820;4.336;2023-04-03T16:10:10;12.40;67.90
23520;DHT22;11936;50.820;4.336;2023-04-03T16:12:36;12.60;68.10
23520;DHT22;11936;50.820;4.336;2023-04-03T16:15:02;12.50;67.60
23520;DHT22;11936;50.820;4.336;2023-04-03T16:17:28;12.50;67.50
23520;DHT22;11936;50.820;4.336;2023-04-03T16:19:54;12.50;69.00
23520;DHT22;11936;50.820;4.336;2023-04-03T16:22:21;12.40;68.40
23520;DHT22;11936;50.820;4.336;2023-04-03T16:24:48;12.30;67.30
23520;DHT22;11936;50.820;4.336;2023-04-03T16:27:15;12.40;68.10
23520;DHT22;11936;50.820;4.336;2023-04-03T16:29:40;12.50;69.20
23520;DHT22;11936;50.820;4.336;2023-04-03T16:32:06;12.50;69.80
23520;DHT22;11936;50.820;4.336;2023-04-03T16:34:32;12.60;69.80
23520;DHT22;11936;50.820;4.336;2023-04-03T16:36:58;12.60;68.80
23520;DHT22;11936;50.820;4.336;2023-04-03T16:39:23;12.60;69.50
23520;DHT22;11936;50.820;4.336;2023-04-03T16:41:49;12.60;70.00
23520;DHT22;11936;50.820;4.336;2023-04-03T16:44:15;12.60;69.70
23520;DHT22;11936;50.820;4.336;2023-04-03T16:46:41;12.50;70.60
23520;DHT22;11936;50.820;4.336;2023-04-03T16:49:06;12.40;70.30
23520;DHT22;11936;50.820;4.336;2023-04-03T16:51:32;12.50;71.70
23520;DHT22;11936;50.820;4.336;2023-04-03T16:53:58;12.60;71.00
23520;DHT22;11936;50.820;4.336;2023-04-03T16:56:24;12.60;71.50
23520;DHT22;11936;50.820;4.336;2023-04-03T16:58:52;12.60;71.70
23520;DHT22;11936;50.820;4.336;2023-04-03T17:01:20;12.70;70.60
23520;DHT22;11936;50.820;4.336;2023-04-03T17:03:46;12.70;70.30
23520;DHT22;11936;50.820;4.336;2023-04-03T17:06:16;12.50;70.60
23520;DHT22;11936;50.820;4.336;2023-04-03T17:08:46;12.60;71.50
23520;DHT22;11936;50.820;4.336;2023-04-03T17:11:13;12.50;71.40
23520;DHT22;11936;50.820;4.336;2023-04-03T17:13:39;12.40;72.30
23520;DHT22;11936;50.820;4.336;2023-04-03T17:16:07;12.30;71.30
23520;DHT22;11936;50.820;4.336;2023-04-03T17:18:34;12.30;71.80
23520;DHT22;11936;50.820;4.336;2023-04-03T17:21:11;12.20;72.20
23520;DHT22;11936;50.820;4.336;2023-04-03T17:23:48;12.10;72.30
23520;DHT22;11936;50.820;4.336;2023-04-03T17:26:16;11.90;73.10
23520;DHT22;11936;50.820;4.336;2023-04-03T17:28:42;11.90;73.00
23520;DHT22;11936;50.820;4.336;2023-04-03T17:31:09;11.90;72.60
23520;DHT22;11936;50.820;4.336;2023-04-03T17:33:36;11.90;72.10
23520;DHT22;11936;50.820;4.336;2023-04-03T17:36:03;11.90;71.50